Terminal Aerodrome Forecast
Issued by NWS Jackson, KY

Home | Current Version | Previous Version | Text Only | Print | Product List | Glossary On
Versions: 1 2 3 4 5 6 7 8 9 10 11 12 13 14 15 16 17 18 19 20 21 22 23
000
FTUS43 KJKL 231748
TAFLOZ
TAF
KLOZ 231748Z 2318/2418 06008KT 5SM SHRA BR OVC007
     FM240000 05008G17KT 4SM -SHRA BR OVC010
     FM240400 04010G18KT 4SM BR VCSH OVC010
     FM240800 04010KT 4SM BR VCSH OVC004
     FM241200 04008KT P6SM OVC010
     FM241600 VRB03KT P6SM BKN020=

USA.gov is the U.S. government's official web portal to all federal, state and local government web resources and services.